sensor_id;sensor_type;location;lat;lon;timestamp;pressure;altitude;pressure_sealevel;temperature;humidity
63088;BME280;49173;43.164;27.786;2024-01-15T00:02:26;99988.84;;;0.11;61.28
63088;BME280;49173;43.164;27.786;2024-01-15T00:04:55;99987.19;;;0.06;61.55
63088;BME280;49173;43.164;27.786;2024-01-15T00:07:22;99988.13;;;0.03;62.05
63088;BME280;49173;43.164;27.786;2024-01-15T00:09:49;99985.53;;;-0.02;61.77
63088;BME280;49173;43.164;27.786;2024-01-15T00:12:15;99984.69;;;-0.02;61.67
63088;BME280;49173;43.164;27.786;2024-01-15T00:14:47;99986.41;;;-0.01;62.20
63088;BME280;49173;43.164;27.786;2024-01-15T00:17:14;99983.88;;;-0.06;62.09
63088;BME280;49173;43.164;27.786;2024-01-15T00:19:40;99983.00;;;-0.08;61.89
63088;BME280;49173;43.164;27.786;2024-01-15T00:22:06;99984.78;;;-0.07;61.85
63088;BME280;49173;43.164;27.786;2024-01-15T00:24:34;99982.91;;;-0.02;61.45
63088;BME280;49173;43.164;27.786;2024-01-15T00:27:02;99988.16;;;0.02;61.45
63088;BME280;49173;43.164;27.786;2024-01-15T00:29:28;99990.81;;;0.00;61.58
63088;BME280;49173;43.164;27.786;2024-01-15T00:31:55;99988.19;;;-0.02;61.70
63088;BME280;49173;43.164;27.786;2024-01-15T00:34:25;99987.31;;;-0.02;61.93
63088;BME280;49173;43.164;27.786;2024-01-15T00:36:53;99993.56;;;-0.06;62.19
63088;BME280;49173;43.164;27.786;2024-01-15T00:39:22;99992.72;;;-0.10;62.55
63088;BME280;49173;43.164;27.786;2024-01-15T00:41:49;99985.81;;;-0.17;62.25
63088;BME280;49173;43.164;27.786;2024-01-15T00:44:18;99994.75;;;-0.24;62.92
63088;BME280;49173;43.164;27.786;2024-01-15T00:46:48;99992.16;;;-0.27;62.64
63088;BME280;49173;43.164;27.786;2024-01-15T00:49:16;99987.78;;;-0.30;62.48
63088;BME280;49173;43.164;27.786;2024-01-15T00:51:44;99989.59;;;-0.32;62.89
63088;BME280;49173;43.164;27.786;2024-01-15T00:54:10;99983.47;;;-0.32;62.64
63088;BME280;49173;43.164;27.786;2024-01-15T00:56:40;99977.25;;;-0.30;62.50
63088;BME280;49173;43.164;27.786;2024-01-15T00:59:06;99979.88;;;-0.28;62.22
63088;BME280;49173;43.164;27.786;2024-01-15T01:01:34;99977.25;;;-0.28;61.98
63088;BME280;49173;43.164;27.786;2024-01-15T01:04:04;99980.78;;;-0.31;61.99
63088;BME280;49173;43.164;27.786;2024-01-15T01:06:32;99976.41;;;-0.32;61.78
63088;BME280;49173;43.164;27.786;2024-01-15T01:08:58;99981.72;;;-0.33;61.66
63088;BME280;49173;43.164;27.786;2024-01-15T01:11:27;99976.44;;;-0.33;61.79
63088;BME280;49173;43.164;27.786;2024-01-15T01:13:54;99980.00;;;-0.34;61.67
63088;BME280;49173;43.164;27.786;2024-01-15T01:16:25;99981.69;;;-0.32;61.55
63088;BME280;49173;43.164;27.786;2024-01-15T01:18:52;99977.25;;;-0.30;61.65
63088;BME280;49173;43.164;27.786;2024-01-15T01:21:18;99971.06;;;-0.27;61.67
63088;BME280;49173;43.164;27.786;2024-01-15T01:23:44;99978.94;;;-0.25;61.63
63088;BME280;49173;43.164;27.786;2024-01-15T01:26:17;99976.28;;;-0.24;61.48
63088;BME280;49173;43.164;27.786;2024-01-15T01:28:45;99964.84;;;-0.23;61.56
63088;BME280;49173;43.164;27.786;2024-01-15T01:31:15;99972.72;;;-0.21;61.36
63088;BME280;49173;43.164;27.786;2024-01-15T01:33:42;99967.38;;;-0.17;61.29
63088;BME280;49173;43.164;27.786;2024-01-15T01:36:10;99965.59;;;-0.16;61.73
63088;BME280;49173;43.164;27.786;2024-01-15T01:38:37;99974.34;;;-0.13;61.63
63088;BME280;49173;43.164;27.786;2024-01-15T01:41:04;99968.19;;;-0.13;61.61
63088;BME280;49173;43.164;27.786;2024-01-15T01:43:30;99963.75;;;-0.11;61.33
63088;BME280;49173;43.164;27.786;2024-01-15T01:45:57;99968.13;;;-0.10;61.59
63088;BME280;49173;43.164;27.786;2024-01-15T01:48:26;99963.72;;;-0.10;61.36
63088;BME280;49173;43.164;27.786;2024-01-15T01:50:55;99961.88;;;-0.05;61.03
63088;BME280;49173;43.164;27.786;2024-01-15T01:53:25;99957.41;;;-0.01;61.44
63088;BME280;49173;43.164;27.786;2024-01-15T01:55:53;99956.50;;;0.02;61.22
63088;BME280;49173;43.164;27.786;2024-01-15T01:58:21;99961.72;;;0.03;60.71
63088;BME280;49173;43.164;27.786;2024-01-15T02:00:47;99958.19;;;0.04;60.93
63088;BME280;49173;43.164;27.786;2024-01-15T02:03:16;99961.69;;;0.05;61.03
63088;BME280;49173;43.164;27.786;2024-01-15T02:05:43;99953.81;;;0.03;60.61
63088;BME280;49173;43.164;27.786;2024-01-15T02:08:13;99954.75;;;-0.01;61.04
63088;BME280;49173;43.164;27.786;2024-01-15T02:10:42;99950.41;;;-0.04;61.81
63088;BME280;49173;43.164;27.786;2024-01-15T02:13:11;99947.91;;;-0.10;61.81
63088;BME280;49173;43.164;27.786;2024-01-15T02:15:40;99948.88;;;-0.15;62.31
63088;BME280;49173;43.164;27.786;2024-01-15T02:18:08;99949.88;;;-0.21;62.46
63088;BME280;49173;43.164;27.786;2024-01-15T02:20:34;99943.78;;;-0.24;62.99
63088;BME280;49173;43.164;27.786;2024-01-15T02:23:16;99949.97;;;-0.29;63.51
63088;BME280;49173;43.164;27.786;2024-01-15T02:25:47;99953.53;;;-0.30;63.50
63088;BME280;49173;43.164;27.786;2024-01-15T02:28:15;99944.84;;;-0.36;63.50
63088;BME280;49173;43.164;27.786;2024-01-15T02:30:45;99948.41;;;-0.39;63.28
63088;BME280;49173;43.164;27.786;2024-01-15T02:33:14;99945.91;;;-0.46;63.22
63088;BME280;49173;43.164;27.786;2024-01-15T02:35:42;99938.97;;;-0.52;63.11
63088;BME280;49173;43.164;27.786;2024-01-15T02:38:10;99938.16;;;-0.56;63.15
63088;BME280;49173;43.164;27.786;2024-01-15T02:40:42;99945.22;;;-0.58;63.40
63088;BME280;49173;43.164;27.786;2024-01-15T02:43:11;99943.50;;;-0.60;63.61
63088;BME280;49173;43.164;27.786;2024-01-15T02:45:42;99944.41;;;-0.61;63.41
63088;BME280;49173;43.164;27.786;2024-01-15T02:48:08;99944.34;;;-0.58;63.30
63088;BME280;49173;43.164;27.786;2024-01-15T02:50:37;99943.50;;;-0.60;63.03
63088;BME280;49173;43.164;27.786;2024-01-15T02:53:04;99946.13;;;-0.60;63.34
63088;BME280;49173;43.164;27.786;2024-01-15T02:55:32;99944.41;;;-0.61;63.51
63088;BME280;49173;43.164;27.786;2024-01-15T02:58:02;99940.94;;;-0.63;63.70
63088;BME280;49173;43.164;27.786;2024-01-15T03:00:31;99947.97;;;-0.65;63.65
63088;BME280;49173;43.164;27.786;2024-01-15T03:03:00;99932.22;;;-0.68;63.58
63088;BME280;49173;43.164;27.786;2024-01-15T03:05:28;99944.50;;;-0.67;63.66
63088;BME280;49173;43.164;27.786;2024-01-15T03:07:54;99943.66;;;-0.69;63.74
63088;BME280;49173;43.164;27.786;2024-01-15T03:10:20;99946.31;;;-0.71;64.07
63088;BME280;49173;43.164;27.786;2024-01-15T03:12:50;99949.81;;;-0.69;63.90
63088;BME280;49173;43.164;27.786;2024-01-15T03:15:16;99951.56;;;-0.69;64.06
63088;BME280;49173;43.164;27.786;2024-01-15T03:17:48;99957.72;;;-0.69;64.23
63088;BME280;49173;43.164;27.786;2024-01-15T03:20:14;99958.59;;;-0.71;64.43
63088;BME280;49173;43.164;27.786;2024-01-15T03:22:41;99950.69;;;-0.70;64.33
63088;BME280;49173;43.164;27.786;2024-01-15T03:25:08;99950.63;;;-0.67;64.44
63088;BME280;49173;43.164;27.786;2024-01-15T03:27:34;99947.19;;;-0.70;64.52
63088;BME280;49173;43.164;27.786;2024-01-15T03:30:06;99951.63;;;-0.74;64.66
63088;BME280;49173;43.164;27.786;2024-01-15T03:32:36;99951.66;;;-0.75;64.90
63088;BME280;49173;43.164;27.786;2024-01-15T03:35:06;99956.00;;;-0.73;64.45
63088;BME280;49173;43.164;27.786;2024-01-15T03:37:35;99957.75;;;-0.70;64.66
63088;BME280;49173;43.164;27.786;2024-01-15T03:40:01;99962.09;;;-0.69;64.75
63088;BME280;49173;43.164;27.786;2024-01-15T03:42:31;99956.84;;;-0.69;64.83
63088;BME280;49173;43.164;27.786;2024-01-15T03:45:02;99955.03;;;-0.67;64.65
63088;BME280;49173;43.164;27.786;2024-01-15T03:47:31;99955.94;;;-0.68;64.44
63088;BME280;49173;43.164;27.786;2024-01-15T03:49:59;99946.31;;;-0.69;64.66
63088;BME280;49173;43.164;27.786;2024-01-15T03:52:31;99944.56;;;-0.70;64.73
63088;BME280;49173;43.164;27.786;2024-01-15T03:55:02;99945.47;;;-0.73;64.71
63088;BME280;49173;43.164;27.786;2024-01-15T03:57:35;99951.66;;;-0.75;65.13
63088;BME280;49173;43.164;27.786;2024-01-15T04:00:04;99947.22;;;-0.73;65.50
63088;BME280;49173;43.164;27.786;2024-01-15T04:02:31;99957.81;;;-0.75;65.48
63088;BME280;49173;43.164;27.786;2024-01-15T04:04:58;99957.81;;;-0.75;65.65
63088;BME280;49173;43.164;27.786;2024-01-15T04:07:25;99950.75;;;-0.74;65.99
63088;BME280;49173;43.164;27.786;2024-01-15T04:09:51;99949.00;;;-0.74;65.90
63088;BME280;49173;43.164;27.786;2024-01-15T04:12:20;99958.66;;;-0.74;65.80
63088;BME280;49173;43.164;27.786;2024-01-15T04:14:49;99948.19;;;-0.77;65.81
63088;BME280;49173;43.164;27.786;2024-01-15T04:17:16;99960.50;;;-0.79;65.61
63088;BME280;49173;43.164;27.786;2024-01-15T04:19:44;99958.81;;;-0.84;65.71
63088;BME280;49173;43.164;27.786;2024-01-15T04:22:10;99957.09;;;-0.86;65.47
63088;BME280;49173;43.164;27.786;2024-01-15T04:24:37;99963.22;;;-0.86;66.05
63088;BME280;49173;43.164;27.786;2024-01-15T04:27:06;99964.19;;;-0.93;65.82
63088;BME280;49173;43.164;27.786;2024-01-15T04:29:37;99965.13;;;-0.95;66.31
63088;BME280;49173;43.164;27.786;2024-01-15T04:32:04;99966.88;;;-0.94;66.46
63088;BME280;49173;43.164;27.786;2024-01-15T04:34:38;99966.06;;;-0.99;66.72
63088;BME280;49173;43.164;27.786;2024-01-15T04:37:08;99973.13;;;-1.01;66.45
63088;BME280;49173;43.164;27.786;2024-01-15T04:39:37;99977.56;;;-1.06;66.76
63088;BME280;49173;43.164;27.786;2024-01-15T04:42:06;99974.94;;;-1.05;66.82
63088;BME280;49173;43.164;27.786;2024-01-15T04:44:34;99969.69;;;-1.08;66.49
63088;BME280;49173;43.164;27.786;2024-01-15T04:47:00;99971.50;;;-1.10;66.18
63088;BME280;49173;43.164;27.786;2024-01-15T04:49:27;99973.28;;;-1.14;66.29
63088;BME280;49173;43.164;27.786;2024-01-15T04:51:55;99976.03;;;-1.20;66.36
63088;BME280;49173;43.164;27.786;2024-01-15T04:54:25;99974.34;;;-1.25;67.17
63088;BME280;49173;43.164;27.786;2024-01-15T04:56:52;99973.47;;;-1.26;66.81
63088;BME280;49173;43.164;27.786;2024-01-15T04:59:18;99969.97;;;-1.26;66.86
63088;BME280;49173;43.164;27.786;2024-01-15T05:01:48;99975.22;;;-1.28;66.90
63088;BME280;49173;43.164;27.786;2024-01-15T05:04:17;99973.53;;;-1.30;66.96
63088;BME280;49173;43.164;27.786;2024-01-15T05:06:45;99978.91;;;-1.40;67.24
63088;BME280;49173;43.164;27.786;2024-01-15T05:09:12;99972.66;;;-1.34;66.92
63088;BME280;49173;43.164;27.786;2024-01-15T05:11:40;99970.06;;;-1.35;66.95
63088;BME280;49173;43.164;27.786;2024-01-15T05:14:12;99977.09;;;-1.36;66.84
63088;BME280;49173;43.164;27.786;2024-01-15T05:16:39;99973.59;;;-1.36;67.33
63088;BME280;49173;43.164;27.786;2024-01-15T05:19:10;99978.78;;;-1.30;67.09
63088;BME280;49173;43.164;27.786;2024-01-15T05:21:36;99969.16;;;-1.31;66.84
63088;BME280;49173;43.164;27.786;2024-01-15T05:24:03;99972.66;;;-1.34;66.66
63088;BME280;49173;43.164;27.786;2024-01-15T05:26:29;99962.16;;;-1.35;66.91
63088;BME280;49173;43.164;27.786;2024-01-15T05:28:59;99963.94;;;-1.36;66.96
63088;BME280;49173;43.164;27.786;2024-01-15T05:31:25;99970.09;;;-1.37;66.82
63088;BME280;49173;43.164;27.786;2024-01-15T05:33:54;99964.84;;;-1.39;66.86
63088;BME280;49173;43.164;27.786;2024-01-15T05:36:20;99962.16;;;-1.35;66.61
63088;BME280;49173;43.164;27.786;2024-01-15T05:38:47;99958.66;;;-1.36;66.56
63088;BME280;49173;43.164;27.786;2024-01-15T05:41:18;99963.06;;;-1.36;66.48
63088;BME280;49173;43.164;27.786;2024-01-15T05:43:47;99960.41;;;-1.35;66.69
63088;BME280;49173;43.164;27.786;2024-01-15T05:46:13;99963.91;;;-1.34;66.89
63088;BME280;49173;43.164;27.786;2024-01-15T05:48:42;99960.41;;;-1.33;66.62
63088;BME280;49173;43.164;27.786;2024-01-15T05:51:10;99956.81;;;-1.29;66.44
63088;BME280;49173;43.164;27.786;2024-01-15T05:53:36;99953.31;;;-1.27;66.19
63088;BME280;49173;43.164;27.786;2024-01-15T05:56:09;99945.38;;;-1.25;66.26
63088;BME280;49173;43.164;27.786;2024-01-15T05:58:37;99957.59;;;-1.21;66.15
63088;BME280;49173;43.164;27.786;2024-01-15T06:01:03;99957.56;;;-1.18;66.13
63088;BME280;49173;43.164;27.786;2024-01-15T06:03:29;99945.19;;;-1.13;66.29
63088;BME280;49173;43.164;27.786;2024-01-15T06:05:56;99948.66;;;-1.09;65.82
63088;BME280;49173;43.164;27.786;2024-01-15T06:08:22;99947.69;;;-1.02;65.72
63088;BME280;49173;43.164;27.786;2024-01-15T06:10:48;99946.69;;;-0.95;65.50
63088;BME280;49173;43.164;27.786;2024-01-15T06:13:16;99950.13;;;-0.92;65.71
63088;BME280;49173;43.164;27.786;2024-01-15T06:15:45;99947.44;;;-0.87;65.46
63088;BME280;49173;43.164;27.786;2024-01-15T06:18:11;99939.44;;;-0.81;65.64
63088;BME280;49173;43.164;27.786;2024-01-15T06:20:37;99934.03;;;-0.70;65.32
63088;BME280;49173;43.164;27.786;2024-01-15T06:23:05;99934.69;;;-0.59;65.21
63088;BME280;49173;43.164;27.786;2024-01-15T06:25:31;99936.31;;;-0.50;65.39
63088;BME280;49173;43.164;27.786;2024-01-15T06:27:58;99940.41;;;-0.33;64.81
63088;BME280;49173;43.164;27.786;2024-01-15T06:30:27;99926.19;;;-0.24;64.52
63088;BME280;49173;43.164;27.786;2024-01-15T06:32:55;99926.00;;;-0.13;64.52
63088;BME280;49173;43.164;27.786;2024-01-15T06:35:21;99932.94;;;-0.09;64.42
63088;BME280;49173;43.164;27.786;2024-01-15T06:37:48;99927.63;;;-0.08;64.33
63088;BME280;49173;43.164;27.786;2024-01-15T06:40:15;99924.94;;;-0.05;64.64
63088;BME280;49173;43.164;27.786;2024-01-15T06:42:42;99924.03;;;-0.04;64.45
63088;BME280;49173;43.164;27.786;2024-01-15T06:45:10;99916.97;;;-0.02;64.46
63088;BME280;49173;43.164;27.786;2024-01-15T06:47:39;99923.84;;;0.06;64.45
63088;BME280;49173;43.164;27.786;2024-01-15T06:50:10;99926.38;;;0.12;64.37
63088;BME280;49173;43.164;27.786;2024-01-15T06:52:36;99928.94;;;0.16;64.07
63088;BME280;49173;43.164;27.786;2024-01-15T06:55:02;99930.59;;;0.20;64.52
63088;BME280;49173;43.164;27.786;2024-01-15T06:57:31;99926.16;;;0.24;64.19
63088;BME280;49173;43.164;27.786;2024-01-15T06:59:59;99920.84;;;0.25;64.19
63088;BME280;49173;43.164;27.786;2024-01-15T07:02:31;99922.44;;;0.33;63.88
63088;BME280;49173;43.164;27.786;2024-01-15T07:04:57;99927.56;;;0.40;64.35
63088;BME280;49173;43.164;27.786;2024-01-15T07:07:27;99928.44;;;0.41;64.23
63088;BME280;49173;43.164;27.786;2024-01-15T07:09:58;99929.22;;;0.46;64.02
63088;BME280;49173;43.164;27.786;2024-01-15T07:12:34;99933.53;;;0.50;63.83
63088;BME280;49173;43.164;27.786;2024-01-15T07:15:08;99927.34;;;0.51;63.81
63088;BME280;49173;43.164;27.786;2024-01-15T07:17:39;99920.25;;;0.53;63.78
63088;BME280;49173;43.164;27.786;2024-01-15T07:20:06;99922.81;;;0.56;63.99
63088;BME280;49173;43.164;27.786;2024-01-15T07:22:37;99914.03;;;0.57;64.45
63088;BME280;49173;43.164;27.786;2024-01-15T07:25:04;99914.81;;;0.61;65.03
63088;BME280;49173;43.164;27.786;2024-01-15T07:27:34;99914.78;;;0.62;65.12
63088;BME280;49173;43.164;27.786;2024-01-15T07:30:04;99914.75;;;0.64;64.75
63088;BME280;49173;43.164;27.786;2024-01-15T07:32:32;99913.81;;;0.66;64.62
63088;BME280;49173;43.164;27.786;2024-01-15T07:35:01;99899.63;;;0.70;64.76
63088;BME280;49173;43.164;27.786;2024-01-15T07:37:30;99908.31;;;0.75;64.30
63088;BME280;49173;43.164;27.786;2024-01-15T07:39:59;99909.91;;;0.82;64.37
63088;BME280;49173;43.164;27.786;2024-01-15T07:42:35;99898.44;;;0.85;64.56
63088;BME280;49173;43.164;27.786;2024-01-15T07:45:07;99897.34;;;0.94;63.73
63088;BME280;49173;43.164;27.786;2024-01-15T07:47:36;99895.38;;;1.02;63.92
63088;BME280;49173;43.164;27.786;2024-01-15T07:50:03;99890.88;;;1.05;64.06
63088;BME280;49173;43.164;27.786;2024-01-15T07:52:31;99887.28;;;1.09;64.47
63088;BME280;49173;43.164;27.786;2024-01-15T07:55:00;99890.66;;;1.16;64.76
63088;BME280;49173;43.164;27.786;2024-01-15T07:57:29;99896.66;;;1.23;64.48
63088;BME280;49173;43.164;27.786;2024-01-15T07:59:58;99898.19;;;1.31;63.97
63088;BME280;49173;43.164;27.786;2024-01-15T08:02:30;99900.69;;;1.37;63.89
63088;BME280;49173;43.164;27.786;2024-01-15T08:04:56;99893.47;;;1.44;63.59
63088;BME280;49173;43.164;27.786;2024-01-15T08:07:28;99892.56;;;1.45;63.18
63088;BME280;49173;43.164;27.786;2024-01-15T08:10:12;99892.44;;;1.50;62.74
63088;BME280;49173;43.164;27.786;2024-01-15T08:12:39;99897.53;;;1.57;62.58
63088;BME280;49173;43.164;27.786;2024-01-15T08:15:08;99892.97;;;1.64;62.59
63088;BME280;49173;43.164;27.786;2024-01-15T08:17:38;99884.88;;;1.69;62.09
63088;BME280;49173;43.164;27.786;2024-01-15T08:20:13;99890.94;;;1.74;61.61
63088;BME280;49173;43.164;27.786;2024-01-15T08:22:39;99884.63;;;1.79;60.51
63088;BME280;49173;43.164;27.786;2024-01-15T08:25:05;99886.19;;;1.86;60.25
63088;BME280;49173;43.164;27.786;2024-01-15T08:27:31;99882.34;;;1.97;60.13
63088;BME280;49173;43.164;27.786;2024-01-15T08:29:59;99887.31;;;2.09;60.47
63088;BME280;49173;43.164;27.786;2024-01-15T08:32:28;99891.53;;;2.16;60.45
63088;BME280;49173;43.164;27.786;2024-01-15T08:34:55;99895.72;;;2.23;60.62
63088;BME280;49173;43.164;27.786;2024-01-15T08:37:24;99894.59;;;2.32;61.37
63088;BME280;49173;43.164;27.786;2024-01-15T08:39:51;99884.63;;;2.41;62.07
63088;BME280;49173;43.164;27.786;2024-01-15T08:42:20;99878.91;;;2.55;62.53
63088;BME280;49173;43.164;27.786;2024-01-15T08:44:50;99879.25;;;2.72;62.48
63088;BME280;49173;43.164;27.786;2024-01-15T08:47:16;99878.75;;;2.89;61.59
63088;BME280;49173;43.164;27.786;2024-01-15T08:49:42;99876.28;;;3.11;59.76
63088;BME280;49173;43.164;27.786;2024-01-15T08:52:11;99866.69;;;3.34;58.60
63088;BME280;49173;43.164;27.786;2024-01-15T08:54:39;99867.19;;;3.45;57.94
63088;BME280;49173;43.164;27.786;2024-01-15T08:57:05;99860.72;;;3.53;56.97
63088;BME280;49173;43.164;27.786;2024-01-15T08:59:34;99859.59;;;3.61;56.04
63088;BME280;49173;43.164;27.786;2024-01-15T09:02:03;99850.50;;;3.68;56.46
63088;BME280;49173;43.164;27.786;2024-01-15T09:04:31;99858.84;;;3.82;55.99
63088;BME280;49173;43.164;27.786;2024-01-15T09:07:00;99853.31;;;3.88;55.72
63088;BME280;49173;43.164;27.786;2024-01-15T09:09:32;99839.56;;;4.00;55.52
63088;BME280;49173;43.164;27.786;2024-01-15T09:11:58;99831.22;;;4.11;55.62
63088;BME280;49173;43.164;27.786;2024-01-15T09:14:27;99826.34;;;4.22;55.17
63088;BME280;49173;43.164;27.786;2024-01-15T09:16:55;99821.44;;;4.35;55.09
63088;BME280;49173;43.164;27.786;2024-01-15T09:19:24;99815.63;;;4.49;54.72
63088;BME280;49173;43.164;27.786;2024-01-15T09:21:54;99806.47;;;4.56;54.91
63088;BME280;49173;43.164;27.786;2024-01-15T09:24:24;99803.50;;;4.63;54.61
63088;BME280;49173;43.164;27.786;2024-01-15T09:26:52;99803.16;;;4.73;54.37
63088;BME280;49173;43.164;27.786;2024-01-15T09:29:21;99792.25;;;4.79;54.38
63088;BME280;49173;43.164;27.786;2024-01-15T09:31:50;99797.16;;;4.89;54.57
63088;BME280;49173;43.164;27.786;2024-01-15T09:34:19;99793.50;;;4.92;54.78
63088;BME280;49173;43.164;27.786;2024-01-15T09:36:49;99789.72;;;4.97;54.70
63088;BME280;49173;43.164;27.786;2024-01-15T09:39:15;99785.25;;;4.98;54.75
63088;BME280;49173;43.164;27.786;2024-01-15T09:41:44;99777.28;;;4.98;55.16
63088;BME280;49173;43.164;27.786;2024-01-15T09:44:13;99774.63;;;4.98;55.04
63088;BME280;49173;43.164;27.786;2024-01-15T09:46:49;99769.19;;;5.01;55.39
63088;BME280;49173;43.164;27.786;2024-01-15T09:49:17;99772.75;;;5.00;55.83
63088;BME280;49173;43.164;27.786;2024-01-15T09:51:47;99772.66;;;5.03;56.17
63088;BME280;49173;43.164;27.786;2024-01-15T09:54:18;99760.16;;;5.05;56.18
63088;BME280;49173;43.164;27.786;2024-01-15T09:56:51;99750.03;;;5.13;56.46
63088;BME280;49173;43.164;27.786;2024-01-15T09:59:19;99754.16;;;5.20;56.57
63088;BME280;49173;43.164;27.786;2024-01-15T10:01:49;99752.13;;;5.27;56.33
63088;BME280;49173;43.164;27.786;2024-01-15T10:04:19;99750.06;;;5.34;56.67
63088;BME280;49173;43.164;27.786;2024-01-15T10:06:53;99743.78;;;5.35;56.27
63088;BME280;49173;43.164;27.786;2024-01-15T10:09:20;99735.56;;;5.41;56.30
63088;BME280;49173;43.164;27.786;2024-01-15T10:11:54;99733.41;;;5.49;56.35
63088;BME280;49173;43.164;27.786;2024-01-15T10:14:24;99723.44;;;5.54;56.34
63088;BME280;49173;43.164;27.786;2024-01-15T10:16:50;99717.84;;;5.60;56.96
63088;BME280;49173;43.164;27.786;2024-01-15T10:19:16;99714.63;;;5.72;56.81
63088;BME280;49173;43.164;27.786;2024-01-15T10:21:45;99717.06;;;5.77;56.65
63088;BME280;49173;43.164;27.786;2024-01-15T10:24:15;99709.16;;;5.75;56.63
63088;BME280;49173;43.164;27.786;2024-01-15T10:26:43;99703.72;;;5.78;57.39
63088;BME280;49173;43.164;27.786;2024-01-15T10:29:14;99698.03;;;5.86;57.54
63088;BME280;49173;43.164;27.786;2024-01-15T10:31:40;99686.03;;;5.96;57.65
63088;BME280;49173;43.164;27.786;2024-01-15T10:34:11;99682.28;;;6.00;57.92
63088;BME280;49173;43.164;27.786;2024-01-15T10:36:45;99668.81;;;6.03;58.30
63088;BME280;49173;43.164;27.786;2024-01-15T10:39:17;99665.78;;;6.11;58.23
63088;BME280;49173;43.164;27.786;2024-01-15T10:41:47;99659.53;;;6.12;58.29
63088;BME280;49173;43.164;27.786;2024-01-15T10:44:15;99653.97;;;6.17;58.39
63088;BME280;49173;43.164;27.786;2024-01-15T10:46:48;99637.06;;;6.18;58.66
63088;BME280;49173;43.164;27.786;2024-01-15T10:49:18;99630.72;;;6.20;58.53
63088;BME280;49173;43.164;27.786;2024-01-15T10:51:47;99630.41;;;6.26;58.63
63088;BME280;49173;43.164;27.786;2024-01-15T10:54:17;99627.75;;;6.26;59.22
63088;BME280;49173;43.164;27.786;2024-01-15T10:56:43;99631.22;;;6.28;59.47
63088;BME280;49173;43.164;27.786;2024-01-15T10:59:13;99634.66;;;6.30;60.00
63088;BME280;49173;43.164;27.786;2024-01-15T11:01:43;99634.66;;;6.30;60.23
63088;BME280;49173;43.164;27.786;2024-01-15T11:04:15;99629.88;;;6.37;59.79
63088;BME280;49173;43.164;27.786;2024-01-15T11:06:50;99620.56;;;6.46;59.15
63088;BME280;49173;43.164;27.786;2024-01-15T11:09:23;99624.72;;;6.51;58.82
63088;BME280;49173;43.164;27.786;2024-01-15T11:12:06;99618.22;;;6.57;58.91
63088;BME280;49173;43.164;27.786;2024-01-15T11:17:04;99616.91;;;6.66;59.93
63088;BME280;49173;43.164;27.786;2024-01-15T11:19:45;99607.00;;;6.68;60.21
63088;BME280;49173;43.164;27.786;2024-01-15T11:25:15;99601.75;;;6.83;60.96
63088;BME280;49173;43.164;27.786;2024-01-15T11:27:42;99597.03;;;6.88;60.76
63088;BME280;49173;43.164;27.786;2024-01-15T11:30:15;99591.69;;;6.88;60.70
63088;BME280;49173;43.164;27.786;2024-01-15T11:32:44;99582.75;;;6.89;60.52
63088;BME280;49173;43.164;27.786;2024-01-15T11:35:16;99584.47;;;6.91;60.30
63088;BME280;49173;43.164;27.786;2024-01-15T11:40:37;99569.91;;;6.98;60.04
63088;BME280;49173;43.164;27.786;2024-01-15T11:43:09;99565.34;;;7.00;60.27
63088;BME280;49173;43.164;27.786;2024-01-15T11:45:38;99563.44;;;7.02;60.22
63088;BME280;49173;43.164;27.786;2024-01-15T11:48:14;99580.22;;;7.04;60.50
63088;BME280;49173;43.164;27.786;2024-01-15T11:50:51;99575.50;;;7.09;60.83
63088;BME280;49173;43.164;27.786;2024-01-15T11:53:45;99566.56;;;7.10;61.09
63088;BME280;49173;43.164;27.786;2024-01-15T11:56:19;99562.25;;;7.07;61.36
63088;BME280;49173;43.164;27.786;2024-01-15T11:58:48;99558.47;;;7.11;61.51
63088;BME280;49173;43.164;27.786;2024-01-15T12:01:17;99555.75;;;7.13;61.45
63088;BME280;49173;43.164;27.786;2024-01-15T12:03:50;99553.06;;;7.13;61.52
63088;BME280;49173;43.164;27.786;2024-01-15T12:06:20;99546.00;;;7.12;61.53
63088;BME280;49173;43.164;27.786;2024-01-15T12:08:49;99531.72;;;7.13;61.28
63088;BME280;49173;43.164;27.786;2024-01-15T12:11:17;99533.59;;;7.11;61.75
63088;BME280;49173;43.164;27.786;2024-01-15T12:13:51;99530.91;;;7.11;62.08
63088;BME280;49173;43.164;27.786;2024-01-15T12:16:22;99529.81;;;7.15;62.38
63088;BME280;49173;43.164;27.786;2024-01-15T12:19:11;99533.13;;;7.20;62.51
63088;BME280;49173;43.164;27.786;2024-01-15T12:21:41;99525.16;;;7.19;62.40
63088;BME280;49173;43.164;27.786;2024-01-15T12:24:11;99530.69;;;7.15;62.32
63088;BME280;49173;43.164;27.786;2024-01-15T12:26:42;99527.06;;;7.16;62.33
63088;BME280;49173;43.164;27.786;2024-01-15T12:29:11;99514.00;;;7.12;62.43
63088;BME280;49173;43.164;27.786;2024-01-15T12:31:42;99507.44;;;7.18;61.85
63088;BME280;49173;43.164;27.786;2024-01-15T12:34:13;99505.91;;;7.13;62.20
63088;BME280;49173;43.164;27.786;2024-01-15T12:36:40;99514.75;;;7.14;62.12
63088;BME280;49173;43.164;27.786;2024-01-15T12:39:11;99515.88;;;7.10;62.36
63088;BME280;49173;43.164;27.786;2024-01-15T12:41:40;99500.03;;;7.07;62.37
63088;BME280;49173;43.164;27.786;2024-01-15T12:44:08;99498.22;;;7.07;62.54
63088;BME280;49173;43.164;27.786;2024-01-15T12:46:34;99501.00;;;7.06;62.60
63088;BME280;49173;43.164;27.786;2024-01-15T12:49:04;99497.47;;;7.05;62.48
63088;BME280;49173;43.164;27.786;2024-01-15T12:51:33;99486.06;;;7.02;62.91
63088;BME280;49173;43.164;27.786;2024-01-15T12:54:02;99496.66;;;7.03;62.79
63088;BME280;49173;43.164;27.786;2024-01-15T12:56:31;99500.47;;;6.99;63.03
63088;BME280;49173;43.164;27.786;2024-01-15T12:59:00;99504.84;;;7.00;63.11
63088;BME280;49173;43.164;27.786;2024-01-15T13:01:26;99506.66;;;7.00;63.22
63088;BME280;49173;43.164;27.786;2024-01-15T13:03:52;99504.75;;;7.02;63.45
63088;BME280;49173;43.164;27.786;2024-01-15T13:06:18;99497.59;;;7.02;63.17
63088;BME280;49173;43.164;27.786;2024-01-15T13:08:47;99503.66;;;7.06;63.40
63088;BME280;49173;43.164;27.786;2024-01-15T13:11:16;99509.75;;;7.08;63.44
63088;BME280;49173;43.164;27.786;2024-01-15T13:13:50;99515.00;;;7.09;63.79